Time;durP1;ratioP1;P1;durP2;ratioP2;P2;SDS_P1;SDS_P2;PMS_P1;PMS_P2;Temp;Humidity;BMP_temperature;BMP_pressure;BME280_temperature;BME280_humidity;BME280_pressure;Samples;Min_cycle;Max_cycle;Signal;HPM_P1;HPM_P2
2021/04/12 00:00:27;;;;;;;34.25;11.93;;;;;;;9.12;55.10;99619.14;1740658;81;21171;-84
2021/04/12 00:03:08;;;;;;;29.97;11.87;;;;;;;9.13;55.54;99615.66;1748718;81;21561;-83
2021/04/12 00:06:08;;;;;;;27.05;10.85;;;;;;;9.15;54.67;99612.61;1740729;81;21154;-84
2021/04/12 00:08:50;;;;;;;29.10;11.68;;;;;;;9.16;53.61;99607.41;1782270;80;21154;-86
2021/04/12 00:11:47;;;;;;;22.37;10.38;;;;;;;9.18;51.19;99615.19;1800463;79;21176;-85
2021/04/12 00:14:25;;;;;;;26.17;11.30;;;;;;;9.16;51.72;99604.81;1789891;78;21209;-84
2021/04/12 00:17:03;;;;;;;25.85;11.38;;;;;;;9.19;53.59;99610.44;1781431;80;21269;-84
2021/04/12 00:19:59;;;;;;;28.75;11.50;;;;;;;9.20;54.22;99610.84;1781652;79;21122;-85
2021/04/12 00:22:44;;;;;;;28.10;11.95;;;;;;;9.19;51.93;99602.65;1809902;78;21272;-85
2021/04/12 00:25:41;;;;;;;28.07;11.40;;;;;;;9.21;52.11;99594.41;1814255;78;21724;-86
2021/04/12 00:28:33;;;;;;;25.37;10.98;;;;;;;9.21;52.57;99594.83;1812664;79;21261;-85
2021/04/12 00:31:21;;;;;;;24.07;11.30;;;;;;;9.21;53.91;99590.52;1794506;79;21225;-85
2021/04/12 00:34:06;;;;;;;25.60;11.65;;;;;;;9.21;51.62;99595.70;1800932;79;21269;-84
2021/04/12 00:36:39;;;;;;;24.60;11.28;;;;;;;9.15;53.36;99593.16;1819802;78;21304;-85
2021/04/12 00:39:41;;;;;;;29.27;12.65;;;;;;;9.07;50.95;99600.16;1818995;78;21319;-83
2021/04/12 00:42:44;;;;;;;25.75;11.88;;;;;;;9.01;53.12;99604.13;1791450;78;21248;-83
2021/04/12 00:46:01;;;;;;;26.95;11.57;;;;;;;9.02;53.00;99596.78;1804109;79;21130;-85
2021/04/12 00:49:01;;;;;;;30.75;11.97;;;;;;;9.04;53.01;99593.28;1763647;81;21668;-83
2021/04/12 00:52:09;;;;;;;29.57;11.38;;;;;;;9.03;54.03;99594.18;1769776;81;21321;-82
2021/04/12 00:55:20;;;;;;;28.60;12.00;;;;;;;9.05;53.05;99595.44;1769257;81;21336;-82
2021/04/12 00:58:02;;;;;;;26.02;11.53;;;;;;;9.07;53.24;99594.98;1757753;81;21164;-83
2021/04/12 01:00:41;;;;;;;25.55;12.20;;;;;;;9.08;54.56;99596.71;1799842;79;21149;-83
2021/04/12 01:03:43;;;;;;;27.02;12.37;;;;;;;8.97;54.17;99576.06;1744976;82;22013;-85
2021/04/12 01:06:39;;;;;;;26.20;11.33;;;;;;;9.08;53.75;99585.89;1762571;81;21167;-82
2021/04/12 01:10:02;;;;;;;23.35;11.45;;;;;;;9.07;52.96;99591.97;1733111;83;21675;-82
2021/04/12 01:13:13;;;;;;;27.37;12.23;;;;;;;9.05;52.68;99591.13;1796775;80;21291;-83
2021/04/12 01:16:21;;;;;;;25.15;11.57;;;;;;;9.05;54.21;99588.95;1711365;82;21208;-82
2021/04/12 01:18:59;;;;;;;27.22;12.23;;;;;;;9.05;54.45;99581.17;1728356;82;21204;-82
2021/04/12 01:22:22;;;;;;;26.50;11.93;;;;;;;9.02;53.38;99579.92;1692031;82;21513;-85
2021/04/12 01:25:09;;;;;;;24.30;10.80;;;;;;;9.03;53.74;99581.63;1713203;82;22395;-83
2021/04/12 01:28:29;;;;;;;25.12;10.48;;;;;;;9.07;54.65;99582.01;1710688;84;21287;-84
2021/04/12 01:31:13;;;;;;;21.45;9.45;;;;;;;9.08;53.64;99578.55;1683978;84;21304;-83
2021/04/12 01:34:18;;;;;;;21.97;10.10;;;;;;;9.11;53.19;99579.80;1702201;82;21326;-84
2021/04/12 01:37:22;;;;;;;19.05;9.10;;;;;;;9.12;52.78;99586.72;1719205;84;21248;-84
2021/04/12 01:40:25;;;;;;;18.50;9.78;;;;;;;9.14;53.25;99581.92;1651627;84;21308;-83
2021/04/12 01:43:33;;;;;;;15.98;8.35;;;;;;;9.18;52.83;99585.80;1691802;84;21338;-84
2021/04/12 01:46:21;;;;;;;17.50;9.30;;;;;;;9.21;52.26;99589.22;1684341;85;21192;-84
2021/04/12 01:49:06;;;;;;;17.92;8.93;;;;;;;9.25;52.85;99589.60;1686362;85;21171;-85
2021/04/12 01:52:05;;;;;;;19.27;9.10;;;;;;;9.26;52.53;99580.92;1692589;85;21310;-84
2021/04/12 01:55:04;;;;;;;20.12;8.33;;;;;;;9.25;51.69;99579.23;1662603;85;21343;-84
2021/04/12 01:58:12;;;;;;;17.67;7.72;;;;;;;9.26;50.97;99591.30;1668972;84;21311;-84
2021/04/12 02:00:53;;;;;;;16.80;7.70;;;;;;;9.26;52.58;99590.45;1705581;84;21291;-85
2021/04/12 02:04:00;;;;;;;19.62;8.88;;;;;;;9.26;52.03;99586.11;1721381;83;21231;-84
2021/04/12 02:06:42;;;;;;;17.42;8.70;;;;;;;9.29;52.16;99590.41;1644038;87;21305;-84
2021/04/12 02:09:44;;;;;;;17.77;8.60;;;;;;;9.31;52.22;99593.42;1652316;87;21519;-84
2021/04/12 02:12:57;;;;;;;16.02;8.48;;;;;;;9.33;52.48;99592.96;1684741;85;21176;-84
2021/04/12 02:15:53;;;;;;;16.70;8.28;;;;;;;9.35;52.13;99592.50;1662058;85;21292;-84
2021/04/12 02:18:57;;;;;;;22.35;8.98;;;;;;;9.38;51.72;99595.94;1652519;87;21307;-84
2021/04/12 02:21:54;;;;;;;20.82;9.35;;;;;;;9.37;52.88;99597.69;1683170;85;21277;-84
2021/04/12 02:24:46;;;;;;;22.25;8.63;;;;;;;9.37;53.83;99588.59;1674698;85;21317;-84
2021/04/12 02:27:31;;;;;;;19.50;9.15;;;;;;;9.34;55.45;99591.22;1644569;87;21333;-84
2021/04/12 02:30:07;;;;;;;20.50;9.75;;;;;;;9.31;54.41;99594.72;1654685;86;21277;-83
2021/04/12 02:32:55;;;;;;;26.57;12.05;;;;;;;9.29;57.50;99592.99;1673926;86;21312;-83
2021/04/12 02:35:58;;;;;;;25.12;11.93;;;;;;;9.27;54.79;99590.44;1672396;86;21169;-84
2021/04/12 02:38:40;;;;;;;46.05;20.62;;;;;;;9.25;55.38;99587.02;1672536;85;21217;-83
2021/04/12 02:41:25;;;;;;;39.45;19.50;;;;;;;9.23;57.48;99586.17;1672619;86;21181;-84
2021/04/12 02:44:30;;;;;;;37.30;17.32;;;;;;;9.20;56.71;99590.08;1672639;86;21138;-84
2021/04/12 02:47:21;;;;;;;30.55;15.30;;;;;;;9.18;55.83;99585.34;1667095;84;21264;-83
2021/04/12 02:50:33;;;;;;;24.70;13.48;;;;;;;9.16;56.10;99589.25;1684214;84;21309;-84
2021/04/12 02:53:24;;;;;;;19.80;9.68;;;;;;;9.13;55.39;99588.01;1650518;87;21277;-83
2021/04/12 02:56:33;;;;;;;17.52;8.53;;;;;;;9.09;53.09;99577.25;1696063;84;21309;-83
2021/04/12 02:59:26;;;;;;;19.90;8.33;;;;;;;9.06;53.94;99582.45;1667108;86;21327;-85
2021/04/12 03:02:30;;;;;;;16.00;8.70;;;;;;;8.96;56.55;99582.99;1678028;86;21289;-84
2021/04/12 03:05:21;;;;;;;;;;;;;;;8.96;55.68;99584.28;1680658;86;21290;-83
2021/04/12 03:08:06;;;;;;;16.57;7.65;;;;;;;8.93;56.38;99586.93;1697563;84;20256;-84
2021/04/12 03:11:04;;;;;;;19.07;7.42;;;;;;;8.94;55.43;99583.45;1681667;84;21320;-84
2021/04/12 03:14:02;;;;;;;22.98;8.33;;;;;;;8.96;54.55;99589.92;1683181;85;21618;-84
2021/04/12 03:16:57;;;;;;;22.17;8.55;;;;;;;8.98;54.22;99591.20;1683038;85;21331;-83
2021/04/12 03:19:39;;;;;;;17.15;7.62;;;;;;;8.96;53.71;99589.47;1685347;84;21351;-84
2021/04/12 03:22:47;;;;;;;20.08;8.23;;;;;;;8.97;53.57;99591.63;1711036;84;21244;-84
2021/04/12 03:25:23;;;;;;;20.92;8.73;;;;;;;8.95;54.22;99583.88;1794808;79;21191;-87
2021/04/12 03:28:19;;;;;;;18.60;8.38;;;;;;;8.93;52.43;99588.23;1799869;80;21229;-84
2021/04/12 03:31:15;;;;;;;16.87;8.65;;;;;;;8.90;54.24;99586.09;1721887;80;21218;-85
2021/04/12 03:34:10;;;;;;;21.80;9.85;;;;;;;8.86;53.02;99580.52;1688280;81;21186;-85
2021/04/12 03:37:20;;;;;;;19.12;9.18;;;;;;;8.79;54.85;99579.70;1712190;82;21161;-84
2021/04/12 03:39:59;;;;;;;21.70;9.98;;;;;;;8.73;54.98;99574.59;1715440;82;21535;-84
2021/04/12 03:42:50;;;;;;;19.92;9.20;;;;;;;8.66;54.68;99574.24;1728234;82;21500;-84
2021/04/12 03:45:33;;;;;;;20.85;9.60;;;;;;;8.62;54.52;99571.26;1688891;84;21281;-84
2021/04/12 03:48:36;;;;;;;24.70;9.53;;;;;;;8.56;55.06;99570.44;1736796;83;21257;-82
2021/04/12 03:51:43;;;;;;;20.95;9.13;;;;;;;8.52;55.56;99580.41;1738869;83;21264;-82
2021/04/12 03:54:25;;;;;;;22.52;9.75;;;;;;;8.44;54.69;99583.50;1738688;83;21341;-84
2021/04/12 03:57:25;;;;;;;25.88;9.78;;;;;;;8.37;57.18;99592.16;1738526;83;21240;-84
2021/04/12 04:00:05;;;;;;;24.67;9.23;;;;;;;8.30;55.47;99589.21;1713364;84;21183;-84
2021/04/12 04:03:09;;;;;;;23.05;9.75;;;;;;;8.22;56.57;99589.70;1683978;84;21136;-83
2021/04/12 04:06:20;;;;;;;23.20;9.60;;;;;;;8.22;57.32;99584.53;1804116;79;22635;-87
2021/04/12 04:08:55;;;;;;;22.67;10.03;;;;;;;8.12;56.24;99590.20;1781663;80;21117;-84
2021/04/12 04:11:48;;;;;;;21.75;10.38;;;;;;;8.06;56.50;99586.38;1782766;80;21187;-84
2021/04/12 04:14:57;;;;;;;26.17;10.68;;;;;;;8.04;57.16;99590.26;1786394;80;21295;-84
2021/04/12 04:18:03;;;;;;;32.93;11.78;;;;;;;8.00;57.44;99587.68;1753924;80;21219;-83
2021/04/12 04:20:36;;;;;;;27.45;12.68;;;;;;;7.96;56.98;99590.75;1765802;81;21735;-84
2021/04/12 04:23:30;;;;;;;31.20;12.82;;;;;;;7.91;57.80;99588.17;1781503;80;21291;-84
2021/04/12 04:26:36;;;;;;;;;;;;;;;7.89;58.90;99594.23;1773371;80;21266;-84
2021/04/12 04:30:00;;;;;;;39.20;13.45;;;;;;;7.86;61.05;99595.13;1791447;79;20537;-84
2021/04/12 04:36:24;;;;;;;101.30;24.12;;;;;;;7.79;58.62;99605.52;1761417;80;21141;-81
2021/04/12 04:39:49;;;;;;;68.12;16.82;;;;;;;7.78;58.52;99603.38;1768179;79;21258;-84
2021/04/12 04:43:09;;;;;;;91.87;29.02;;;;;;;7.81;59.39;99599.45;1756697;80;21194;-87
2021/04/12 04:46:15;;;;;;;69.25;24.27;;;;;;;7.85;61.04;99597.71;1775447;81;21188;-84
2021/04/12 04:49:05;;;;;;;89.87;27.87;;;;;;;7.91;57.53;99595.08;1775277;81;21116;-83
2021/04/12 04:51:47;;;;;;;59.15;21.20;;;;;;;7.94;59.39;99600.26;1775108;81;21192;-83
2021/04/12 04:54:38;;;;;;;68.90;25.23;;;;;;;8.00;57.03;99595.45;1788892;79;21250;-84
2021/04/12 04:57:44;;;;;;;57.15;25.32;;;;;;;8.05;56.31;99593.70;1764797;79;21297;-85
2021/04/12 05:00:23;;;;;;;49.13;18.10;;;;;;;8.10;58.51;99590.66;1786858;80;21283;-83
2021/04/12 05:03:19;;;;;;;44.03;17.70;;;;;;;8.15;59.49;99591.47;1753904;81;21259;-83
2021/04/12 05:06:42;;;;;;;38.35;16.75;;;;;;;8.08;60.38;99579.01;1773098;81;21263;-84
2021/04/12 05:09:34;;;;;;;35.73;14.85;;;;;;;8.26;58.44;99589.66;1772696;80;21296;-81
2021/04/12 05:12:31;;;;;;;32.63;14.98;;;;;;;8.34;57.69;99592.20;1797231;79;21214;-81
2021/04/12 05:15:30;;;;;;;36.28;15.15;;;;;;;8.41;58.98;99591.70;1692839;84;21288;-83
2021/04/12 05:18:27;;;;;;;33.28;17.20;;;;;;;8.47;57.80;99589.09;1723771;82;21231;-83
2021/04/12 05:21:18;;;;;;;35.63;17.12;;;;;;;8.51;57.06;99589.03;1730129;82;21305;-84
2021/04/12 05:24:20;;;;;;;35.13;17.90;;;;;;;8.60;56.03;99593.74;1745301;82;21773;-83
2021/04/12 05:27:08;;;;;;;25.32;10.72;;;;;;;8.72;55.38;99594.47;1720622;82;21255;-84
2021/04/12 05:30:04;;;;;;;28.17;10.28;;;;;;;8.81;57.25;99597.40;1709584;83;21235;-85
2021/04/12 05:32:45;;;;;;;25.20;9.70;;;;;;;8.87;56.82;99592.59;1684834;84;21200;-84
2021/04/12 05:40:08;;;;;;;27.30;9.88;;;;;;;9.04;54.23;99590.69;1685150;83;21138;-84
2021/04/12 05:43:28;;;;;;;23.87;9.30;;;;;;;9.15;53.94;99589.27;1705779;84;21108;-85
2021/04/12 05:46:21;;;;;;;20.82;8.95;;;;;;;9.27;54.71;99590.86;1709320;82;21175;-86
2021/04/12 05:49:23;;;;;;;19.95;8.78;;;;;;;9.36;55.04;99585.56;1724602;82;21160;-89
2021/04/12 05:52:56;;;;;;;25.50;8.75;;;;;;;9.45;54.49;99587.18;1764300;81;21110;-86
2021/04/12 05:55:55;;;;;;;19.45;8.45;;;;;;;9.57;53.64;99596.13;1685930;84;21582;-85
2021/04/12 05:59:02;;;;;;;27.62;9.90;;;;;;;9.65;53.42;99595.59;1693763;84;21261;-85
2021/04/12 06:02:22;;;;;;;22.20;9.43;;;;;;;9.73;53.40;99584.66;1643420;85;21332;-87
2021/04/12 06:05:53;;;;;;;17.45;8.53;;;;;;;9.83;54.06;99575.41;1627175;87;21195;-91
2021/04/12 06:08:45;;;;;;;20.10;8.78;;;;;;;10.00;53.87;99574.73;1793425;77;22741;-89
2021/04/12 06:11:47;;;;;;;16.48;8.53;;;;;;;10.04;53.14;99576.41;1812803;79;21245;-84
2021/04/12 06:14:50;;;;;;;23.50;8.73;;;;;;;10.13;53.29;99571.08;1797027;79;21239;-85
2021/04/12 06:17:58;;;;;;;18.87;8.78;;;;;;;10.23;53.20;99567.89;1743918;80;21267;-86
2021/04/12 06:21:23;;;;;;;22.77;9.98;;;;;;;10.49;52.54;99572.69;1820734;78;23075;-89
2021/04/12 06:24:11;;;;;;;20.15;9.75;;;;;;;10.57;51.94;99575.61;1804192;80;21100;-85
2021/04/12 06:27:05;;;;;;;21.23;8.95;;;;;;;10.69;51.74;99576.69;1784649;78;21170;-84
2021/04/12 06:30:23;;;;;;;16.70;8.30;;;;;;;10.83;51.15;99580.34;1764366;79;21117;-87
2021/04/12 06:33:50;;;;;;;14.70;7.92;;;;;;;10.95;50.84;99577.05;1608974;88;21335;-86
2021/04/12 06:37:07;;;;;;;18.30;7.83;;;;;;;11.10;50.60;99573.73;1521837;93;21312;-85
2021/04/12 06:43:11;;;;;;;23.57;9.28;;;;;;;11.41;49.85;99575.28;1604832;87;21421;-83
2021/04/12 06:46:31;;;;;;;31.30;8.80;;;;;;;11.57;49.58;99574.52;1643248;86;21174;-91
2021/04/12 06:53:42;;;;;;;21.05;7.75;;;;;;;11.91;47.80;99559.47;1560829;91;21259;-91
2021/04/12 06:56:38;;;;;;;14.80;7.47;;;;;;;12.08;45.96;99561.70;1530356;88;21262;-84
2021/04/12 07:00:09;;;;;;;17.87;7.62;;;;;;;12.23;47.26;99556.09;1548153;87;21232;-93
2021/04/12 07:03:21;;;;;;;14.93;7.50;;;;;;;12.36;46.42;99554.05;1553871;91;21272;-96
2021/04/12 07:09:37;;;;;;;13.55;7.17;;;;;;;12.68;46.07;99557.13;1690490;83;21488;-94
2021/04/12 07:32:13;;;;;;;20.43;7.37;;;;;;;13.90;43.01;99543.22;1752615;81;21153;-91
2021/04/12 07:46:12;;;;;;;13.78;6.97;;;;;;;14.39;42.13;99540.78;1581877;91;21200;-91
2021/04/12 07:49:03;;;;;;;19.57;6.37;;;;;;;14.51;40.41;99535.98;1610065;89;21314;-85
2021/04/12 07:52:26;;;;;;;14.58;6.53;;;;;;;14.64;39.65;99538.20;1603983;89;21204;-87
2021/04/12 07:55:19;;;;;;;14.00;6.40;;;;;;;14.71;40.72;99535.31;1644113;86;21193;-92
2021/04/12 07:58:42;;;;;;;18.50;6.65;;;;;;;14.61;39.02;99491.22;1652112;85;21953;-85
2021/04/12 08:05:23;;;;;;;15.88;5.22;;;;;;;15.08;37.52;99528.78;1665440;84;21298;-84
2021/04/12 08:08:33;;;;;;;12.73;5.15;;;;;;;15.27;39.76;99525.47;1639166;86;21304;-83
2021/04/12 08:14:56;;;;;;;11.63;5.22;;;;;;;15.66;36.79;99519.16;1875111;76;23032;-85
2021/04/12 08:18:01;;;;;;;67.32;39.25;;;;;;;15.69;34.40;99517.71;1860212;77;21257;-85
2021/04/12 08:20:55;;;;;;;11.45;6.55;;;;;;;15.83;38.89;99511.11;1820028;77;21299;-85
2021/04/12 08:23:53;;;;;;;11.80;4.95;;;;;;;15.93;38.09;99509.82;1856825;77;21236;-85
2021/04/12 08:27:03;;;;;;;14.05;5.17;;;;;;;16.02;37.87;99514.70;1840875;77;21228;-85
2021/04/12 08:30:06;;;;;;;11.70;4.95;;;;;;;16.08;36.94;99513.14;1855104;77;21153;-84
2021/04/12 08:33:11;;;;;;;12.00;4.67;;;;;;;16.23;36.94;99501.61;1860566;76;21125;-84
2021/04/12 08:36:22;;;;;;;15.65;4.83;;;;;;;16.32;36.02;99493.36;1846904;77;21231;-86
2021/04/12 08:39:29;;;;;;;11.08;5.12;;;;;;;16.45;36.67;99492.38;1847628;77;21317;-84
2021/04/12 08:42:23;;;;;;;9.30;4.90;;;;;;;16.64;35.71;99483.25;1810684;78;21132;-85
2021/04/12 08:45:33;;;;;;;11.45;5.03;;;;;;;16.73;34.80;99480.20;1775174;80;21164;-86
2021/04/12 08:48:39;;;;;;;10.93;4.97;;;;;;;16.82;35.05;99479.84;1805534;78;21251;-88
2021/04/12 08:51:56;;;;;;;9.10;4.47;;;;;;;16.92;32.28;99476.81;1797202;80;21615;-86
2021/04/12 08:55:03;;;;;;;12.53;5.22;;;;;;;17.07;35.14;99472.19;1804656;78;21298;-80
2021/04/12 08:58:06;;;;;;;10.78;4.67;;;;;;;17.19;34.86;99466.80;1765393;80;21145;-79
2021/04/12 09:01:07;;;;;;;12.95;4.70;;;;;;;17.35;34.65;99463.88;1787798;79;21169;-80
2021/04/12 09:04:08;;;;;;;9.53;4.00;;;;;;;17.52;31.01;99464.37;1770313;78;21405;-84
2021/04/12 09:07:25;;;;;;;11.85;4.78;;;;;;;17.65;34.14;99455.45;1720234;81;21227;-86
2021/04/12 09:10:11;;;;;;;7.97;4.03;;;;;;;17.72;33.59;99457.30;1797968;80;21247;-87
2021/04/12 09:12:49;;;;;;;9.75;3.75;;;;;;;17.84;32.66;99448.37;1829041;78;21264;-87
2021/04/12 09:15:43;;;;;;;15.70;7.20;;;;;;;17.87;32.41;99448.70;1744548;80;21264;-88
2021/04/12 09:18:45;;;;;;;14.83;5.10;;;;;;;17.94;31.30;99447.45;1779549;80;21252;-87
2021/04/12 09:21:51;;;;;;;8.08;4.42;;;;;;;17.99;28.71;99440.20;1791314;80;21271;-85
2021/04/12 09:24:44;;;;;;;9.63;4.25;;;;;;;18.08;31.17;99432.29;1785597;80;21292;-85
2021/04/12 09:28:04;;;;;;;9.15;4.22;;;;;;;18.16;29.97;99434.53;1795688;80;21280;-87
2021/04/12 09:31:28;;;;;;;11.85;4.62;;;;;;;18.22;28.01;99417.12;1791562;80;21316;-87
2021/04/12 09:34:36;;;;;;;10.28;3.95;;;;;;;18.41;28.80;99420.50;1785329;79;21259;-86
2021/04/12 09:37:30;;;;;;;13.75;4.25;;;;;;;18.48;26.12;99419.70;1795270;79;21231;-86
2021/04/12 09:40:51;;;;;;;26.35;10.63;;;;;;;18.59;29.19;99412.58;1796163;79;21275;-84
2021/04/12 09:43:46;;;;;;;11.20;5.03;;;;;;;18.66;29.50;99414.81;1732843;81;21152;-85
2021/04/12 09:47:16;;;;;;;9.95;4.20;;;;;;;18.95;29.92;99406.30;1842034;77;22192;-86
2021/04/12 09:53:17;;;;;;;9.78;4.42;;;;;;;19.30;28.52;99401.71;1683971;85;21146;-86
2021/04/12 09:56:26;;;;;;;14.95;3.92;;;;;;;19.40;27.38;99389.70;1680387;80;21164;-86
2021/04/12 09:59:18;;;;;;;9.43;4.05;;;;;;;19.54;29.37;99381.48;1704156;83;21189;-85
2021/04/12 10:02:16;;;;;;;13.90;4.45;;;;;;;19.71;29.40;99381.81;1704414;82;21198;-88
2021/04/12 10:05:10;;;;;;;7.72;4.17;;;;;;;19.86;28.57;99380.48;1649078;85;21203;-85
2021/04/12 10:08:09;;;;;;;10.13;3.77;;;;;;;20.06;28.84;99373.17;1688761;82;21342;-88
2021/04/12 10:11:15;;;;;;;9.65;4.05;;;;;;;20.26;28.81;99373.30;1637767;85;21322;-86
2021/04/12 10:14:00;;;;;;;11.53;4.03;;;;;;;20.35;27.12;99367.47;1712561;82;21300;-83
2021/04/12 10:16:32;;;;;;;12.55;4.83;;;;;;;20.48;28.33;99359.63;1709142;82;21304;-83
2021/04/12 10:19:18;;;;;;;10.05;4.70;;;;;;;20.56;27.94;99356.03;1720007;82;21302;-86
2021/04/12 10:21:59;;;;;;;13.08;4.20;;;;;;;20.69;27.29;99349.56;1712907;82;21312;-87
2021/04/12 10:24:57;;;;;;;8.15;4.15;;;;;;;20.83;26.17;99346.02;1719533;82;21234;-86
2021/04/12 10:27:48;;;;;;;13.45;4.28;;;;;;;20.85;26.14;99344.16;1712045;83;21161;-85
2021/04/12 10:30:30;;;;;;;12.10;4.15;;;;;;;20.94;26.65;99335.63;1708336;83;21295;-86
2021/04/12 10:33:04;;;;;;;18.20;7.20;;;;;;;21.12;26.12;99334.06;1713192;83;21446;-85
2021/04/12 10:35:52;;;;;;;13.50;5.65;;;;;;;21.31;22.65;99326.64;1681992;83;21335;-85
2021/04/12 10:38:30;;;;;;;10.82;4.10;;;;;;;21.45;25.04;99323.11;1696514;83;21319;-88
2021/04/12 10:41:23;;;;;;;8.33;3.52;;;;;;;21.58;25.31;99319.16;1707497;82;21308;-85
2021/04/12 10:44:12;;;;;;;7.25;3.37;;;;;;;21.74;24.74;99316.33;1699671;82;21288;-87
2021/04/12 10:46:57;;;;;;;9.78;2.98;;;;;;;21.92;25.45;99312.91;1709706;83;21586;-89
2021/04/12 10:49:40;;;;;;;5.30;2.70;;;;;;;22.03;21.92;99308.56;1720805;83;22212;-86
2021/04/12 10:52:37;;;;;;;7.37;3.00;;;;;;;22.05;23.54;99304.02;1721117;82;21281;-87
2021/04/12 10:55:19;;;;;;;11.40;3.00;;;;;;;22.13;23.66;99304.81;1679665;84;21203;-87
2021/04/12 10:57:56;;;;;;;5.65;3.00;;;;;;;;;;1657477;85;21222;-87
2021/04/12 11:00:36;;;;;;;7.15;3.45;;;;;;;22.18;21.40;99300.51;1696052;82;21169;-85
2021/04/12 11:03:17;;;;;;;7.25;3.47;;;;;;;22.31;23.59;99292.59;1690074;84;21240;-86
2021/04/12 11:05:57;;;;;;;11.60;3.30;;;;;;;22.43;22.46;99293.05;1728697;82;21123;-85
2021/04/12 11:08:34;;;;;;;10.10;3.05;;;;;;;22.63;20.56;99291.13;1722151;82;21376;-85
2021/04/12 11:11:11;;;;;;;10.20;3.33;;;;;;;22.84;22.74;99282.61;1717260;82;21145;-85
2021/04/12 11:14:11;;;;;;;7.87;3.08;;;;;;;23.12;21.77;99274.82;1721506;82;21340;-85
2021/04/12 11:16:45;;;;;;;15.75;4.67;;;;;;;23.42;20.62;99265.53;1705244;82;21166;-86
2021/04/12 11:19:35;;;;;;;86.35;7.92;;;;;;;23.64;22.21;99270.05;1710853;82;21257;-85
2021/04/12 11:22:32;;;;;;;10.80;3.08;;;;;;;23.79;21.38;99269.37;1714819;82;21203;-86
2021/04/12 11:25:11;;;;;;;9.08;3.45;;;;;;;23.99;21.53;99273.12;1709194;82;21185;-87
2021/04/12 11:27:54;;;;;;;10.58;3.60;;;;;;;24.11;20.93;99268.67;1725732;82;21146;-86
2021/04/12 11:30:55;;;;;;;10.10;4.08;;;;;;;24.30;19.22;99262.27;1689039;83;21321;-87
2021/04/12 11:33:35;;;;;;;13.62;3.98;;;;;;;24.53;20.04;99254.30;1718396;82;21276;-85
2021/04/12 11:36:21;;;;;;;9.38;3.67;;;;;;;24.79;18.92;99244.23;1703324;83;21662;-88
2021/04/12 11:39:22;;;;;;;7.95;3.00;;;;;;;25.22;18.89;99239.36;1807188;79;23029;-86
2021/04/12 11:42:04;;;;;;;9.10;3.17;;;;;;;25.46;20.67;99231.13;1772323;80;21240;-85
2021/04/12 11:44:55;;;;;;;19.35;3.55;;;;;;;25.71;19.41;99232.55;1768156;80;21103;-86
2021/04/12 11:47:49;;;;;;;14.20;3.75;;;;;;;25.88;20.06;99223.09;1783480;80;21255;-85
2021/04/12 11:50:28;;;;;;;7.28;3.05;;;;;;;25.85;19.74;99223.37;1783527;80;21330;-88
2021/04/12 11:53:32;;;;;;;10.40;3.42;;;;;;;25.91;19.51;99215.37;1779493;80;21276;-85
2021/04/12 12:00:09;;;;;;;9.65;3.27;;;;;;;25.83;19.15;99206.69;1769009;80;21125;-87
2021/04/12 12:02:53;;;;;;;9.23;3.00;;;;;;;25.90;18.28;99203.86;1767993;80;21276;-81
2021/04/12 12:05:41;;;;;;;11.80;3.10;;;;;;;26.33;19.60;99193.42;1761320;79;21139;31
2021/04/12 12:11:45;;;;;;;13.43;3.08;;;;;;;27.15;19.34;99177.55;1704931;84;21167;-87
2021/04/12 12:14:36;;;;;;;20.37;11.57;;;;;;;27.52;19.26;99171.48;1680272;83;21347;-86
2021/04/12 12:17:15;;;;;;;13.50;4.03;;;;;;;27.76;19.00;99166.13;1744615;81;21292;-85
2021/04/12 12:19:54;;;;;;;11.60;3.12;;;;;;;28.18;17.75;99163.50;1748346;80;21168;-86
2021/04/12 12:22:36;;;;;;;10.03;3.58;;;;;;;28.54;18.38;99155.89;1749067;81;21153;-85
2021/04/12 12:25:09;;;;;;;12.23;3.00;;;;;;;28.89;17.94;99146.69;1767778;80;21263;-86
2021/04/12 12:27:45;;;;;;;11.22;3.50;;;;;;;29.42;17.43;99151.09;1704836;83;21317;-90
2021/04/12 12:30:48;;;;;;;8.75;3.10;;;;;;;29.86;17.34;99141.63;1702753;83;21155;-89
2021/04/12 12:33:46;;;;;;;10.93;2.90;;;;;;;30.33;15.26;99137.13;1827416;77;22944;-81
2021/04/12 12:36:24;;;;;;;8.15;2.92;;;;;;;31.02;14.75;99132.86;1827989;78;21270;-86
2021/04/12 12:39:21;;;;;;;17.07;3.40;;;;;;;31.11;13.70;99108.17;1813626;77;21155;-87
2021/04/12 12:41:54;;;;;;;8.15;2.77;;;;;;;31.60;14.96;99120.69;1836772;76;21220;-86
2021/04/12 12:54:50;;;;;;;9.93;2.92;;;;;;;33.05;15.29;99115.61;1745813;79;21129;-86
2021/04/12 13:01:10;;;;;;;6.80;2.45;;;;;;;33.85;12.55;99098.74;1745674;80;21160;-91
2021/04/12 13:08:51;;;;;;;9.85;3.00;;;;;;;34.93;12.17;99090.73;1772642;79;21592;-93
2021/04/12 13:12:20;;;;;;;8.50;2.83;;;;;;;35.42;10.94;99091.19;1738957;81;21581;-92
2021/04/12 13:20:07;;;;;;;5.97;2.70;;;;;;;36.35;12.51;99079.94;1702535;78;21208;-94
2021/04/12 13:23:16;;;;;;;11.63;3.17;;;;;;;35.59;12.08;99072.75;1722737;82;21135;-90
2021/04/12 13:27:00;;;;;;;9.63;2.85;;;;;;;35.59;12.08;99072.75;1728138;81;21312;-91
2021/04/12 13:30:03;;;;;;;9.65;2.98;;;;;;;36.27;10.82;99068.45;1738813;82;21230;-93
2021/04/12 13:32:36;;;;;;;13.03;4.20;;;;;;;36.80;10.86;99054.97;1715313;83;21155;-91
2021/04/12 13:35:17;;;;;;;11.28;3.20;;;;;;;36.89;11.00;99068.63;1720741;83;21264;-92
2021/04/12 13:41:32;;;;;;;15.03;3.10;;;;;;;36.62;11.89;99065.88;1707577;82;21307;-91
2021/04/12 13:44:11;;;;;;;11.28;2.72;;;;;;;36.16;9.86;99059.91;1706328;82;21190;-91
2021/04/12 13:47:09;;;;;;;11.05;3.33;;;;;;;36.80;11.42;99057.16;1724804;81;21135;-96
2021/04/12 13:49:47;;;;;;;10.90;2.70;;;;;;;37.05;10.95;99053.80;1724911;81;21164;-93
2021/04/12 13:52:24;;;;;;;11.73;3.17;;;;;;;37.45;11.07;99048.83;1668751;84;21322;-94
2021/04/12 13:55:12;;;;;;;10.13;2.90;;;;;;;37.12;9.26;99052.45;1699580;83;21154;-96
2021/04/12 13:57:51;;;;;;;11.03;3.00;;;;;;;37.31;9.35;99050.75;1763186;80;21189;-86
2021/04/12 14:00:36;;;;;;;6.95;2.52;;;;;;;36.93;9.47;99048.70;1725940;82;21280;-94
2021/04/12 14:03:27;;;;;;;13.98;2.72;;;;;;;37.12;9.44;99042.44;1724072;82;21277;-94
2021/04/12 14:06:24;;;;;;;14.75;3.80;;;;;;;37.72;10.73;99040.07;1728389;82;21296;-96
2021/04/12 14:09:09;;;;;;;9.65;2.50;;;;;;;37.33;10.41;99035.94;1723934;82;21170;-94
2021/04/12 14:11:53;;;;;;;11.33;3.40;;;;;;;37.20;10.42;99025.95;1720035;82;21173;-90
2021/04/12 14:14:31;;;;;;;12.88;3.22;;;;;;;37.60;10.33;99025.00;1725145;80;21292;-91
2021/04/12 14:17:25;;;;;;;9.03;2.60;;;;;;;37.59;10.34;99028.24;1695716;82;21318;-94
2021/04/12 14:20:10;;;;;;;6.08;2.30;;;;;;;37.65;10.04;99018.95;1728738;82;21158;-94
2021/04/12 14:22:58;;;;;;;8.48;2.50;;;;;;;37.14;10.01;99022.73;1716658;81;21190;-92
2021/04/12 14:25:47;;;;;;;9.15;3.20;;;;;;;36.56;9.36;99011.20;1800555;79;22935;-91
2021/04/12 14:29:12;;;;;;;7.20;2.77;;;;;;;37.02;10.46;99013.57;1747256;77;21243;-89
2021/04/12 14:32:02;;;;;;;8.53;3.35;;;;;;;35.68;9.81;99020.73;1646120;85;21339;-95
2021/04/12 14:35:12;;;;;;;14.47;3.17;;;;;;;35.29;10.38;99016.79;1664510;85;21168;-93
2021/04/12 14:38:14;;;;;;;8.78;2.67;;;;;;;35.51;10.32;99018.86;1690301;83;21546;-88
2021/04/12 14:40:59;;;;;;;8.30;2.72;;;;;;;35.46;10.12;99007.84;1687057;80;21138;-84
2021/04/12 14:43:37;;;;;;;7.67;2.72;;;;;;;35.08;11.02;99004.20;1732174;81;21328;-81
2021/04/12 14:46:25;;;;;;;9.45;2.47;;;;;;;34.85;11.10;99013.91;1763422;81;21265;-83
2021/04/12 14:49:14;;;;;;;7.50;2.98;;;;;;;34.52;10.38;99011.78;1763301;79;21697;-93
2021/04/12 14:51:56;;;;;;;9.15;3.02;;;;;;;35.19;10.64;99005.52;1725100;81;21166;-91
2021/04/12 15:01:11;;;;;;;9.53;3.00;;;;;;;34.63;11.38;99015.28;1740288;82;21176;-92
2021/04/12 15:07:13;;;;;;;9.68;2.90;;;;;;;33.81;11.21;99006.30;1764794;79;21165;-86
2021/04/12 15:10:21;;;;;;;;;;;;;;;;;;;;;
2021/04/12 15:13:29;;;;;;;11.03;3.20;;;;;;;33.24;11.58;99006.50;1679113;83;21621;-88
2021/04/12 15:20:11;;;;;;;9.65;2.95;;;;;;;33.62;12.20;99005.03;1784077;77;21307;-88
2021/04/12 16:03:58;;;;;;;14.55;3.27;;;;;;;30.55;13.97;98992.64;1669706;83;21429;-92
2021/04/12 16:07:41;;;;;;;14.75;3.60;;;;;;;29.43;14.68;98992.63;1669046;83;21122;-91
2021/04/12 16:10:35;;;;;;;12.37;3.05;;;;;;;28.69;15.12;98989.52;1696561;82;21103;-90
2021/04/12 16:13:41;;;;;;;10.85;2.90;;;;;;;27.70;15.67;98954.41;1711707;80;21200;-91